Time;durP1;ratioP1;P1;durP2;ratioP2;P2;SDS_P1;SDS_P2;PMS_P1;PMS_P2;Temp;Humidity;BMP_temperature;BMP_pressure;BME280_temperature;BME280_humidity;BME280_pressure;Samples;Min_cycle;Max_cycle;Signal;HPM_P1;HPM_P2
2021/11/09 00:01:20;;;;;;;13.43;5.32;;;;;;;;;;5044895;28;20505;-75
2021/11/09 00:03:51;;;;;;;14.95;5.72;;;;;;;;;;5046639;28;20136;-75
2021/11/09 00:06:23;;;;;;;19.02;6.20;;;;;;;;;;5065007;28;20105;-75
2021/11/09 00:08:56;;;;;;;21.45;6.55;;;;;;;;;;5046164;28;20131;-75
2021/11/09 00:11:24;;;;;;;19.10;5.88;;;;;;;;;;5047278;28;20592;-75
2021/11/09 00:13:52;;;;;;;18.50;6.43;;;;;;;;;;5057274;28;20550;-75
2021/11/09 00:16:19;;;;;;;18.95;6.32;;;;;;;;;;5044940;28;20132;-75
2021/11/09 00:18:48;;;;;;;15.20;5.82;;;;;;;;;;5047968;28;20800;-75
2021/11/09 00:21:19;;;;;;;18.10;6.55;;;;;;;;;;5068662;28;20087;-74
2021/11/09 00:23:46;;;;;;;19.20;6.43;;;;;;;;;;5056295;28;20110;-75
2021/11/09 00:26:14;;;;;;;24.55;6.45;;;;;;;;;;5048801;28;20121;-75
2021/11/09 00:28:42;;;;;;;20.17;6.53;;;;;;;;;;5050573;28;20080;-75
2021/11/09 00:31:09;;;;;;;24.58;5.82;;;;;;;;;;5068171;28;20048;-75
2021/11/09 00:33:37;;;;;;;19.45;6.30;;;;;;;;;;5045139;28;20052;-75
2021/11/09 00:36:06;;;;;;;22.83;6.97;;;;;;;;;;5050566;28;20078;-75
2021/11/09 00:38:34;;;;;;;19.65;7.22;;;;;;;;;;5067527;28;20155;-75
2021/11/09 00:41:01;;;;;;;21.17;7.68;;;;;;;;;;5068317;28;20045;-75
2021/11/09 00:43:28;;;;;;;20.85;7.30;;;;;;;;;;5057285;28;20143;-75
2021/11/09 00:45:55;;;;;;;23.15;7.82;;;;;;;;;;5047997;28;20143;-75
2021/11/09 00:48:23;;;;;;;23.48;7.40;;;;;;;;;;5048756;28;20057;-75
2021/11/09 00:50:50;;;;;;;22.58;7.32;;;;;;;;;;5067872;28;20469;-75
2021/11/09 00:53:18;;;;;;;25.90;8.15;;;;;;;;;;5042067;28;20152;-75
2021/11/09 00:55:47;;;;;;;24.40;8.18;;;;;;;;;;5047853;28;20103;-75
2021/11/09 00:58:15;;;;;;;26.30;9.45;;;;;;;;;;5059553;28;20080;-75
2021/11/09 01:00:43;;;;;;;26.02;8.93;;;;;;;;;;5068109;28;20091;-75
2021/11/09 01:03:11;;;;;;;25.45;8.30;;;;;;;;;;5066716;28;20127;-75
2021/11/09 01:05:38;;;;;;;25.58;8.63;;;;;;;;;;5047087;28;20049;-75
2021/11/09 01:08:08;;;;;;;25.60;7.43;;;;;;;;;;5049766;28;20143;-75
2021/11/09 01:10:38;;;;;;;23.98;7.97;;;;;;;;;;5043042;28;20057;-75
2021/11/09 01:13:05;;;;;;;21.42;7.82;;;;;;;;;;5052797;28;20049;-74
2021/11/09 01:15:34;;;;;;;24.20;8.35;;;;;;;;;;5047488;28;20060;-75
2021/11/09 01:18:03;;;;;;;29.60;9.35;;;;;;;;;;5047833;28;20045;-75
2021/11/09 01:20:33;;;;;;;29.45;8.90;;;;;;;;;;5049563;28;20159;-75
2021/11/09 01:23:00;;;;;;;29.23;8.88;;;;;;;;;;5066939;28;20109;-75
2021/11/09 01:25:28;;;;;;;29.35;9.52;;;;;;;;;;5067311;28;20113;-75
2021/11/09 01:27:56;;;;;;;34.95;9.27;;;;;;;;;;5058315;28;20124;-75
2021/11/09 01:30:23;;;;;;;30.17;8.88;;;;;;;;;;5046607;28;20127;-75
2021/11/09 01:32:51;;;;;;;24.83;8.07;;;;;;;;;;5065147;28;20060;-75
2021/11/09 01:35:19;;;;;;;34.08;9.95;;;;;;;;;;5067188;28;20139;-75
2021/11/09 01:37:46;;;;;;;31.52;9.68;;;;;;;;;;5065988;28;20510;-75
2021/11/09 01:40:15;;;;;;;28.63;11.15;;;;;;;;;;5067234;28;20048;-75
2021/11/09 01:42:42;;;;;;;32.05;10.20;;;;;;;;;;5059219;28;20045;-75
2021/11/09 01:45:10;;;;;;;25.73;9.15;;;;;;;;;;5047262;28;20139;-75
2021/11/09 01:47:38;;;;;;;33.05;9.75;;;;;;;;;;5047183;28;20076;-74
2021/11/09 01:50:06;;;;;;;33.53;9.55;;;;;;;;;;5045294;28;20132;-75
2021/11/09 01:52:33;;;;;;;34.30;10.98;;;;;;;;;;5047866;28;20120;-75
2021/11/09 01:55:01;;;;;;;33.20;9.70;;;;;;;;;;5046616;28;20501;-75
2021/11/09 01:57:28;;;;;;;32.15;9.25;;;;;;;;;;5052238;28;20052;-75
2021/11/09 01:59:58;;;;;;;32.25;9.63;;;;;;;;;;5066748;28;20123;-75
2021/11/09 02:02:25;;;;;;;33.83;9.18;;;;;;;;;;5043404;28;20045;-75
2021/11/09 02:04:53;;;;;;;27.83;8.20;;;;;;;;;;5048534;28;20135;-74
2021/11/09 02:07:20;;;;;;;24.80;7.22;;;;;;;;;;5063074;28;20504;-74
2021/11/09 02:09:48;;;;;;;23.92;8.45;;;;;;;;;;5046091;28;20056;-75
2021/11/09 02:12:15;;;;;;;35.17;9.88;;;;;;;;;;5048293;28;20155;-75
2021/11/09 02:14:42;;;;;;;33.40;9.35;;;;;;;;;;5048148;28;20735;-75
2021/11/09 02:17:10;;;;;;;34.45;10.20;;;;;;;;;;5063241;28;20140;-74
2021/11/09 02:19:37;;;;;;;35.25;10.27;;;;;;;;;;5044532;28;20075;-75
2021/11/09 02:22:04;;;;;;;39.08;10.65;;;;;;;;;;5047191;28;20812;-75
2021/11/09 02:24:31;;;;;;;33.28;10.65;;;;;;;;;;5047936;28;20131;-75
2021/11/09 02:26:58;;;;;;;36.70;10.75;;;;;;;;;;5065770;28;20048;-75
2021/11/09 02:29:25;;;;;;;40.30;10.93;;;;;;;;;;5065637;28;20080;-75
2021/11/09 02:31:53;;;;;;;37.83;10.95;;;;;;;;;;5064943;28;20449;-75
2021/11/09 02:34:20;;;;;;;38.55;11.55;;;;;;;;;;5065427;28;20135;-75
2021/11/09 02:36:47;;;;;;;39.97;10.80;;;;;;;;;;5047463;28;20626;-75
2021/11/09 02:39:15;;;;;;;44.80;11.65;;;;;;;;;;5031689;28;20421;-75
2021/11/09 02:41:42;;;;;;;38.42;10.13;;;;;;;;;;5046002;28;20098;-75
2021/11/09 02:44:09;;;;;;;34.45;10.35;;;;;;;;;;5064791;28;20163;-75
2021/11/09 02:46:42;;;;;;;37.22;11.13;;;;;;;;;;5065746;28;20187;-75
2021/11/09 02:49:30;;;;;;;46.28;10.90;;;;;;;;;;5063783;28;20048;-75
2021/11/09 02:52:05;;;;;;;35.42;11.27;;;;;;;;;;5063903;28;20052;-75
2021/11/09 02:54:36;;;;;;;30.20;10.30;;;;;;;;;;5044336;28;20136;-75
2021/11/09 02:57:06;;;;;;;38.22;10.90;;;;;;;;;;5045347;28;20140;-74
2021/11/09 03:02:48;;;;;;;47.78;11.48;;;;;;;;;;5027542;28;20102;-75
2021/11/09 03:05:21;;;;;;;35.30;10.13;;;;;;;;;;5038211;28;20132;-75
2021/11/09 03:07:55;;;;;;;37.03;11.23;;;;;;;;;;5052211;28;20052;-75
2021/11/09 03:10:31;;;;;;;35.75;11.63;;;;;;;;;;5047318;28;20064;-74
2021/11/09 03:12:58;;;;;;;38.28;11.93;;;;;;;;;;5047309;28;20044;-75
2021/11/09 03:15:31;;;;;;;35.88;11.75;;;;;;;;;;5065395;28;20480;-75
2021/11/09 03:18:14;;;;;;;37.83;11.13;;;;;;;;;;5038899;28;20051;-75
2021/11/09 03:45:13;;;;;;;35.33;11.23;;;;;;;;;;5064792;28;20052;-75
2021/11/09 03:47:44;;;;;;;42.90;11.63;;;;;;;;;;5059965;28;20136;-75
2021/11/09 03:50:12;;;;;;;43.85;11.27;;;;;;;;;;5060710;28;20442;-75
2021/11/09 03:52:43;;;;;;;39.20;11.55;;;;;;;;;;5058970;28;20072;-75
2021/11/09 03:55:14;;;;;;;41.65;11.80;;;;;;;;;;5048937;28;20103;-75
2021/11/09 03:57:49;;;;;;;45.60;11.60;;;;;;;;;;5050625;28;20453;-74
2021/11/09 04:00:40;;;;;;;43.50;11.38;;;;;;;;;;5069203;28;20075;-74
2021/11/09 04:05:40;;;;;;;46.13;14.52;;;;;;;;;;5068735;28;20088;-75
2021/11/09 04:08:27;;;;;;;46.72;12.38;;;;;;;;;;5065916;28;20147;-75
2021/11/09 04:13:31;;;;;;;35.03;10.95;;;;;;;;;;5067587;28;20079;-75
2021/11/09 04:19:12;;;;;;;37.85;11.30;;;;;;;;;;4985042;28;20057;-77
2021/11/09 04:22:08;;;;;;;37.85;11.65;;;;;;;;;;5049531;28;20048;-74
2021/11/09 04:30:34;;;;;;;37.72;10.77;;;;;;;;;;5047436;28;20493;-74
2021/11/09 04:33:02;;;;;;;37.10;10.52;;;;;;;;;;5042040;28;20091;-75
2021/11/09 04:53:50;;;;;;;45.17;12.98;;;;;;;;;;5052898;28;20156;-75
2021/11/09 05:10:11;;;;;;;41.58;11.68;;;;;;;;;;5047274;28;20095;-74
2021/11/09 05:12:38;;;;;;;46.63;11.93;;;;;;;;;;5052322;28;20049;-75
2021/11/09 05:15:06;;;;;;;52.67;11.93;;;;;;;;;;5067186;28;20045;-74
2021/11/09 05:17:33;;;;;;;47.92;12.38;;;;;;;;;;5064013;28;20083;-75
2021/11/09 05:20:01;;;;;;;54.13;13.32;;;;;;;;;;5061014;28;20124;-74
2021/11/09 05:22:28;;;;;;;45.13;12.90;;;;;;;;;;5066960;28;20059;-75
2021/11/09 05:24:55;;;;;;;52.38;12.95;;;;;;;;;;5065731;28;20135;-75
2021/11/09 05:27:26;;;;;;;44.20;12.05;;;;;;;;;;5055824;28;20168;-75
2021/11/09 05:29:53;;;;;;;48.80;13.60;;;;;;;;;;5049357;28;20055;-75
2021/11/09 05:32:20;;;;;;;51.85;13.73;;;;;;;;;;5064854;28;20087;-75
2021/11/09 05:34:48;;;;;;;49.08;12.05;;;;;;;;;;5049072;28;20763;-75
2021/11/09 05:37:19;;;;;;;52.97;14.10;;;;;;;;;;5041523;28;20055;-76
2021/11/09 05:39:50;;;;;;;48.25;13.18;;;;;;;;;;5046942;28;20316;-76
2021/11/09 05:42:17;;;;;;;52.65;13.55;;;;;;;;;;5047143;28;20049;-75
2021/11/09 05:44:44;;;;;;;61.60;13.13;;;;;;;;;;5049799;28;20173;-75
2021/11/09 05:47:12;;;;;;;47.03;13.57;;;;;;;;;;5048609;28;20499;-75
2021/11/09 05:49:40;;;;;;;51.20;13.07;;;;;;;;;;5048206;28;20155;-75
2021/11/09 05:52:08;;;;;;;52.58;13.07;;;;;;;;;;5048526;28;20124;-76
2021/11/09 05:54:35;;;;;;;57.45;13.57;;;;;;;;;;5066034;28;20132;-75
2021/11/09 05:57:03;;;;;;;56.95;12.85;;;;;;;;;;5062152;28;20128;-75
2021/11/09 05:59:30;;;;;;;54.08;13.57;;;;;;;;;;5045045;28;20136;-75
2021/11/09 06:01:58;;;;;;;59.33;13.20;;;;;;;;;;5057843;28;20059;-75
2021/11/09 06:04:26;;;;;;;43.60;13.00;;;;;;;;;;5066521;28;20371;-75
2021/11/09 06:06:53;;;;;;;51.28;12.43;;;;;;;;;;5063128;28;20092;-75
2021/11/09 06:09:20;;;;;;;55.33;12.48;;;;;;;;;;5063355;28;20131;-75
2021/11/09 06:11:48;;;;;;;47.20;13.63;;;;;;;;;;5066904;28;20139;-75
2021/11/09 06:14:15;;;;;;;55.13;12.82;;;;;;;;;;5050263;28;20463;-75
2021/11/09 06:16:42;;;;;;;55.60;13.63;;;;;;;;;;5045238;28;20132;-75
2021/11/09 06:19:09;;;;;;;51.85;13.88;;;;;;;;;;5065542;28;20163;-75
2021/11/09 06:21:36;;;;;;;51.35;13.25;;;;;;;;;;5048607;28;20094;-75
2021/11/09 06:24:03;;;;;;;47.80;13.10;;;;;;;;;;5051712;28;20099;-75
2021/11/09 06:26:31;;;;;;;48.80;12.48;;;;;;;;;;5046997;28;20049;-74
2021/11/09 06:29:01;;;;;;;42.05;13.27;;;;;;;;;;5046534;28;20063;-75
2021/11/09 06:31:29;;;;;;;45.95;12.35;;;;;;;;;;5048363;28;20151;-75
2021/11/09 06:33:57;;;;;;;43.33;11.32;;;;;;;;;;5047992;28;20063;-75
2021/11/09 06:36:24;;;;;;;40.92;12.63;;;;;;;;;;5044813;28;20144;-75
2021/11/09 06:38:51;;;;;;;43.40;12.63;;;;;;;;;;5064258;28;20083;-75
2021/11/09 06:41:18;;;;;;;45.63;12.70;;;;;;;;;;5065189;28;20048;-75
2021/11/09 06:43:45;;;;;;;45.65;12.05;;;;;;;;;;5064067;28;20115;-75
2021/11/09 06:46:13;;;;;;;41.13;12.43;;;;;;;;;;5035040;28;20141;-75
2021/11/09 06:48:41;;;;;;;49.45;12.57;;;;;;;;;;5061418;28;20138;-75
2021/11/09 06:51:08;;;;;;;45.53;13.20;;;;;;;;;;5065787;28;20053;-75
2021/11/09 06:53:36;;;;;;;45.65;13.20;;;;;;;;;;5064640;28;20135;-75
2021/11/09 06:56:03;;;;;;;49.95;13.93;;;;;;;;;;5037324;28;20136;-75
2021/11/09 06:58:31;;;;;;;54.10;15.02;;;;;;;;;;5046901;28;20132;-76
2021/11/09 07:00:58;;;;;;;48.42;14.00;;;;;;;;;;5065643;28;20160;-75
2021/11/09 07:03:25;;;;;;;50.22;13.80;;;;;;;;;;5064691;28;20390;-76
2021/11/09 07:05:52;;;;;;;56.80;13.63;;;;;;;;;;5047853;28;20131;-75
2021/11/09 07:08:20;;;;;;;48.92;13.63;;;;;;;;;;5059106;28;20139;-75
2021/11/09 07:10:47;;;;;;;53.35;14.52;;;;;;;;;;5065793;28;20139;-75
2021/11/09 07:13:14;;;;;;;61.97;13.70;;;;;;;;;;5058229;28;20088;-76
2021/11/09 07:15:41;;;;;;;49.03;13.98;;;;;;;;;;5044468;28;20056;-75
2021/11/09 07:18:09;;;;;;;52.85;14.38;;;;;;;;;;5047510;28;20048;-76
2021/11/09 07:20:37;;;;;;;54.88;14.05;;;;;;;;;;5047481;28;20049;-75
2021/11/09 07:23:06;;;;;;;61.78;14.27;;;;;;;;;;5046505;28;20583;-75
2021/11/09 07:25:33;;;;;;;49.88;14.20;;;;;;;;;;5036511;28;20048;-76
2021/11/09 07:28:00;;;;;;;52.13;14.52;;;;;;;;;;5052967;28;20065;-75
2021/11/09 07:30:42;;;;;;;55.42;13.35;;;;;;;;;;5065445;28;20229;-75
2021/11/09 07:33:10;;;;;;;62.47;17.13;;;;;;;;;;5044120;28;20084;-75
2021/11/09 07:35:38;;;;;;;54.47;15.40;;;;;;;;;;5047303;28;20079;-75
2021/11/09 07:38:06;;;;;;;58.00;15.55;;;;;;;;;;5040810;28;20084;-75
2021/11/09 07:40:33;;;;;;;47.22;13.48;;;;;;;;;;5047774;28;20056;-75
2021/11/09 07:43:00;;;;;;;63.88;16.25;;;;;;;;;;5050995;28;20080;-76
2021/11/09 07:45:27;;;;;;;69.28;16.38;;;;;;;;;;5065153;28;20817;-76
2021/11/09 07:47:58;;;;;;;62.45;15.18;;;;;;;;;;5064997;28;20495;-75
2021/11/09 07:50:26;;;;;;;55.05;15.38;;;;;;;;;;5064920;28;20118;-75
2021/11/09 07:52:57;;;;;;;55.97;15.45;;;;;;;;;;5064363;28;20580;-76
2021/11/09 07:55:25;;;;;;;55.65;14.98;;;;;;;;;;5065319;28;20157;-76
2021/11/09 07:57:59;;;;;;;52.88;15.80;;;;;;;;;;5060258;28;20105;-76
2021/11/09 08:05:38;;;;;;;49.83;14.43;;;;;;;;;;5064892;28;20056;-76
2021/11/09 08:08:18;;;;;;;37.95;12.60;;;;;;;;;;5040531;28;20079;-76
2021/11/09 08:10:45;;;;;;;45.22;14.35;;;;;;;;;;5044762;28;20147;-76
2021/11/09 08:13:12;;;;;;;45.28;14.30;;;;;;;;;;5043018;28;20164;-76
2021/11/09 08:15:40;;;;;;;50.88;14.55;;;;;;;;;;5043435;28;20143;-76
2021/11/09 08:18:07;;;;;;;43.05;14.15;;;;;;;;;;5045761;28;20049;-75
2021/11/09 08:20:54;;;;;;;53.40;15.93;;;;;;;;;;5063833;28;20127;-76
2021/11/09 08:23:22;;;;;;;50.03;15.90;;;;;;;;;;5038443;28;20128;-76
2021/11/09 08:25:49;;;;;;;53.80;18.17;;;;;;;;;;5044645;28;20044;-76
2021/11/09 08:28:17;;;;;;;40.65;14.60;;;;;;;;;;5046420;28;20052;-76
2021/11/09 08:30:48;;;;;;;53.03;15.77;;;;;;;;;;5064481;28;20076;-76
2021/11/09 08:33:16;;;;;;;51.38;15.00;;;;;;;;;;5062801;28;20048;-75
2021/11/09 08:35:43;;;;;;;51.78;16.92;;;;;;;;;;5064801;28;20122;-76
2021/11/09 08:38:12;;;;;;;52.53;14.52;;;;;;;;;;5046159;28;20630;-75
2021/11/09 08:40:41;;;;;;;52.85;15.55;;;;;;;;;;5067359;28;20580;-76
2021/11/09 08:43:08;;;;;;;46.90;15.88;;;;;;;;;;5049196;28;20139;-76
2021/11/09 08:45:39;;;;;;;57.22;14.85;;;;;;;;;;5050558;28;20127;-76
2021/11/09 08:48:12;;;;;;;47.42;13.98;;;;;;;;;;5050253;28;20126;-76
2021/11/09 08:50:39;;;;;;;45.63;14.00;;;;;;;;;;5050019;28;20106;-76
2021/11/09 08:53:12;;;;;;;44.50;14.02;;;;;;;;;;5062024;28;20486;-76
2021/11/09 08:58:37;;;;;;;45.55;13.05;;;;;;;;;;5056952;28;20080;-76
2021/11/09 09:06:17;;;;;;;38.63;11.65;;;;;;;;;;5052549;28;20139;-76
2021/11/09 09:08:44;;;;;;;38.42;11.80;;;;;;;;;;5059930;28;20155;-76
2021/11/09 09:11:12;;;;;;;35.35;11.25;;;;;;;;;;5067675;28;20044;-75
2021/11/09 09:13:39;;;;;;;35.13;11.48;;;;;;;;;;5044305;28;20159;-76
2021/11/09 09:16:07;;;;;;;27.05;10.40;;;;;;;;;;5067268;28;20105;-76
2021/11/09 09:18:34;;;;;;;46.05;12.32;;;;;;;;;;5038510;28;20110;-76
2021/11/09 09:21:25;;;;;;;44.67;10.18;;;;;;;;;;5046055;28;20132;-75
2021/11/09 09:23:56;;;;;;;39.53;11.75;;;;;;;;;;5049286;28;20151;-75
2021/11/09 09:29:10;;;;;;;34.72;11.27;;;;;;;;;;5055275;28;20128;-76
2021/11/09 09:56:54;;;;;;;35.17;11.80;;;;;;;;;;5066714;28;20045;-75
2021/11/09 09:59:02;;;;;;;34.83;10.85;;;;;;;;;;5052308;28;20052;-76
2021/11/09 10:02:06;;;;;;;28.00;10.23;;;;;;;;;;5066688;28;20102;-76
2021/11/09 10:04:36;;;;;;;32.85;11.65;;;;;;;;;;5063159;28;20048;-76
2021/11/09 10:07:05;;;;;;;36.67;9.63;;;;;;;;;;5066542;28;20080;-75
2021/11/09 10:09:37;;;;;;;41.05;10.13;;;;;;;;;;5031802;28;20359;-76
2021/11/09 10:12:23;;;;;;;25.17;9.32;;;;;;;;;;5045271;28;20099;-76
2021/11/09 10:14:50;;;;;;;;;;;;;;;;;;5046537;28;20171;-76
2021/11/09 10:17:19;;;;;;;33.10;10.63;;;;;;;;;;5028066;28;20015;-76
2021/11/09 10:19:46;;;;;;;24.45;7.88;;;;;;;;;;5062722;28;20080;-76
2021/11/09 10:22:30;;;;;;;21.73;8.52;;;;;;;;;;5065001;28;20168;-76
2021/11/09 10:24:57;;;;;;;24.85;8.70;;;;;;;;;;5047590;28;21090;-76
2021/11/09 10:27:25;;;;;;;27.48;9.68;;;;;;;;;;5047288;28;20131;-76
2021/11/09 10:29:55;;;;;;;19.85;8.15;;;;;;;;;;5030382;28;20091;-75
2021/11/09 10:32:30;;;;;;;20.48;7.88;;;;;;;;;;5047209;28;20445;-76
2021/11/09 10:34:57;;;;;;;;;;;;;;;;;;5065359;28;20088;-76
2021/11/09 10:37:25;;;;;;;24.45;7.78;;;;;;;;;;5047460;28;20008;-76
2021/11/09 10:40:23;;;;;;;17.98;6.45;;;;;;;;;;5065295;28;20061;-76
2021/11/09 10:42:52;;;;;;;22.20;7.32;;;;;;;;;;5033694;28;20772;-76
2021/11/09 10:45:20;;;;;;;21.52;6.70;;;;;;;;;;5044878;28;20061;-76
2021/11/09 10:47:49;;;;;;;12.45;5.75;;;;;;;;;;5047340;28;20044;-76
2021/11/09 10:50:27;;;;;;;15.30;5.57;;;;;;;;;;5047453;28;20091;-76
2021/11/09 10:55:53;;;;;;;12.63;5.53;;;;;;;;;;5066230;28;20079;-76
2021/11/09 10:58:29;;;;;;;15.63;5.30;;;;;;;;;;5045398;28;20445;-84
2021/11/09 11:03:48;;;;;;;18.80;5.10;;;;;;;;;;5068603;28;20057;-83
2021/11/09 11:06:17;;;;;;;9.85;3.80;;;;;;;;;;5068056;28;20135;-84
2021/11/09 11:08:50;;;;;;;9.85;4.00;;;;;;;;;;5048799;28;20083;-84
2021/11/09 11:11:20;;;;;;;16.83;3.90;;;;;;;;;;5054425;28;20080;-84
2021/11/09 11:13:50;;;;;;;12.35;3.60;;;;;;;;;;5053398;28;20402;-84
2021/11/09 11:16:18;;;;;;;19.33;3.95;;;;;;;;;;5071696;28;20127;-84
2021/11/09 11:18:48;;;;;;;6.82;2.70;;;;;;;;;;5064796;28;20037;-84
2021/11/09 11:21:16;;;;;;;15.23;3.05;;;;;;;;;;5071574;28;20044;-83
2021/11/09 11:23:45;;;;;;;10.32;2.88;;;;;;;;;;5071786;28;20736;-84
2021/11/09 11:26:12;;;;;;;11.93;2.78;;;;;;;;;;5071597;28;20076;-84
2021/11/09 11:28:41;;;;;;;9.52;2.85;;;;;;;;;;5071459;28;20091;-84
2021/11/09 11:31:12;;;;;;;8.30;2.72;;;;;;;;;;5065205;28;20509;-83
2021/11/09 11:33:41;;;;;;;8.02;2.15;;;;;;;;;;5051756;28;20052;-83
2021/11/09 11:36:08;;;;;;;9.38;2.38;;;;;;;;;;5071375;28;20460;-84
2021/11/09 11:38:39;;;;;;;12.40;2.30;;;;;;;;;;5071011;28;20109;-85
2021/11/09 11:41:06;;;;;;;10.27;2.00;;;;;;;;;;5071664;28;20083;-83
2021/11/09 11:43:42;;;;;;;9.90;2.22;;;;;;;;;;5035990;28;20594;-84
2021/11/09 11:46:09;;;;;;;6.47;2.35;;;;;;;;;;5050890;28;20573;-83
2021/11/09 11:48:55;;;;;;;13.82;2.35;;;;;;;;;;5050469;28;20106;-83
2021/11/09 11:51:23;;;;;;;7.63;4.03;;;;;;;;;;5033680;28;20089;-83
2021/11/09 11:53:54;;;;;;;8.40;2.85;;;;;;;;;;5046080;28;20080;-83
2021/11/09 11:56:41;;;;;;;6.95;2.38;;;;;;;;;;5071101;28;20749;-83
2021/11/09 11:59:13;;;;;;;18.35;2.72;;;;;;;;;;5055394;28;20478;-83
2021/11/09 12:01:41;;;;;;;11.65;2.60;;;;;;;;;;5060050;28;20199;-83
2021/11/09 12:04:10;;;;;;;8.60;2.05;;;;;;;;;;5057911;28;20064;-83
2021/11/09 12:06:49;;;;;;;4.15;2.20;;;;;;;;;;5071209;28;20084;-83
2021/11/09 12:09:32;;;;;;;8.20;2.40;;;;;;;;;;5035841;28;20082;-84
2021/11/09 12:12:00;;;;;;;9.93;2.20;;;;;;;;;;5051154;28;20049;-83
2021/11/09 12:14:44;;;;;;;7.10;2.13;;;;;;;;;;5052300;28;20041;-83
2021/11/09 12:17:13;;;;;;;12.95;2.42;;;;;;;;;;5054890;28;20136;-83
2021/11/09 12:19:50;;;;;;;5.57;2.05;;;;;;;;;;5044902;28;20588;-83
2021/11/09 12:22:20;;;;;;;10.77;2.28;;;;;;;;;;5074214;28;20821;-83
2021/11/09 12:24:57;;;;;;;4.15;2.28;;;;;;;;;;5074378;28;20131;-82
2021/11/09 12:27:30;;;;;;;10.52;2.20;;;;;;;;;;5074021;28;20088;-83
2021/11/09 12:29:58;;;;;;;9.88;2.65;;;;;;;;;;5056505;28;20052;-84
2021/11/09 12:32:27;;;;;;;8.30;2.22;;;;;;;;;;5074281;28;20079;-85
2021/11/09 12:35:20;;;;;;;3.47;1.83;;;;;;;;;;5051171;28;20045;-84
2021/11/09 12:38:02;;;;;;;6.18;1.83;;;;;;;;;;5052697;28;20072;-84
2021/11/09 12:40:45;;;;;;;8.88;2.10;;;;;;;;;;5054112;28;20080;-84
2021/11/09 12:43:16;;;;;;;8.38;1.88;;;;;;;;;;5071806;28;20075;-83
2021/11/09 12:45:45;;;;;;;12.50;1.40;;;;;;;;;;5073958;28;20092;-84
2021/11/09 12:48:13;;;;;;;6.85;1.40;;;;;;;;;;5057335;28;20095;-83
2021/11/09 12:50:45;;;;;;;5.15;1.23;;;;;;;;;;5056055;28;20561;-84
2021/11/09 12:53:14;;;;;;;10.45;2.03;;;;;;;;;;5073869;28;20519;-83
2021/11/09 12:55:42;;;;;;;13.40;1.80;;;;;;;;;;5073590;28;20128;-83
2021/11/09 12:58:17;;;;;;;6.05;2.00;;;;;;;;;;5055980;28;20088;-84
2021/11/09 13:00:50;;;;;;;6.70;1.67;;;;;;;;;;5072909;28;20460;-83
2021/11/09 13:03:32;;;;;;;6.18;2.15;;;;;;;;;;5072944;28;20062;-84
2021/11/09 13:06:15;;;;;;;5.78;2.42;;;;;;;;;;5072385;28;20140;-83
2021/11/09 13:08:57;;;;;;;13.25;2.03;;;;;;;;;;5068001;28;20767;-83
2021/11/09 13:11:28;;;;;;;8.05;2.40;;;;;;;;;;5073159;28;20127;-82
2021/11/09 13:14:03;;;;;;;9.23;2.20;;;;;;;;;;5059411;28;20136;-83
2021/11/09 13:16:52;;;;;;;8.05;1.60;;;;;;;;;;5053452;28;20061;-82
2021/11/09 13:19:25;;;;;;;8.73;2.05;;;;;;;;;;5061760;28;20131;-83
2021/11/09 13:22:08;;;;;;;6.70;2.53;;;;;;;;;;5073016;28;20105;-83
2021/11/09 13:24:39;;;;;;;14.88;3.72;;;;;;;;;;5053231;28;20091;-82
2021/11/09 13:27:10;;;;;;;9.90;3.03;;;;;;;;;;5051964;28;20084;-82
2021/11/09 13:29:43;;;;;;;9.23;2.17;;;;;;;;;;5071780;28;20079;-82
2021/11/09 13:32:11;;;;;;;8.73;2.33;;;;;;;;;;5072854;28;20365;-82
2021/11/09 13:34:39;;;;;;;6.85;2.55;;;;;;;;;;5072721;28;20083;-82
2021/11/09 13:37:07;;;;;;;13.32;2.90;;;;;;;;;;5072896;28;20062;-82
2021/11/09 13:39:34;;;;;;;5.35;2.47;;;;;;;;;;5072834;28;20102;-82
2021/11/09 13:42:02;;;;;;;10.15;2.70;;;;;;;;;;5055064;28;20044;-82
2021/11/09 13:44:33;;;;;;;8.43;2.70;;;;;;;;;;5053865;28;20091;-82
2021/11/09 13:47:01;;;;;;;21.20;2.92;;;;;;;;;;5041190;28;20476;-83
2021/11/09 13:49:29;;;;;;;18.98;2.38;;;;;;;;;;5054145;28;20045;-82
2021/11/09 13:51:59;;;;;;;7.25;2.40;;;;;;;;;;5072484;28;20049;-83
2021/11/09 13:54:31;;;;;;;8.40;2.40;;;;;;;;;;5072108;28;20048;-82
2021/11/09 13:57:08;;;;;;;9.65;2.20;;;;;;;;;;5072498;28;20048;-82
2021/11/09 13:59:36;;;;;;;6.82;2.53;;;;;;;;;;5072331;28;20095;-82
2021/11/09 14:02:28;;;;;;;13.07;2.80;;;;;;;;;;5072347;28;20094;-83
2021/11/09 14:07:52;;;;;;;11.30;2.75;;;;;;;;;;5072176;28;20088;-83
2021/11/09 14:10:39;;;;;;;12.57;2.78;;;;;;;;;;5072168;28;20087;-82
2021/11/09 14:18:27;;;;;;;14.27;3.03;;;;;;;;;;5062088;28;20132;-82
2021/11/09 14:21:05;;;;;;;10.93;3.10;;;;;;;;;;5054473;28;20080;-82
2021/11/09 14:23:36;;;;;;;9.82;2.80;;;;;;;;;;5071827;28;20485;-82
2021/11/09 14:26:29;;;;;;;11.48;3.30;;;;;;;;;;5072205;28;20098;-82
2021/11/09 14:28:58;;;;;;;7.97;2.92;;;;;;;;;;5068333;28;20521;-82
2021/11/09 14:31:31;;;;;;;21.00;2.92;;;;;;;;;;5072343;28;20049;-83
2021/11/09 14:34:12;;;;;;;18.55;3.42;;;;;;;;;;5049752;28;20468;-82
2021/11/09 14:36:40;;;;;;;8.73;3.17;;;;;;;;;;5071539;28;20050;-82
2021/11/09 14:39:16;;;;;;;12.23;3.42;;;;;;;;;;5056268;28;20052;-82
2021/11/09 14:42:09;;;;;;;13.90;4.18;;;;;;;;;;5051666;28;20068;-82
2021/11/09 14:44:54;;;;;;;9.27;3.10;;;;;;;;;;5051486;28;20133;-83
2021/11/09 14:47:21;;;;;;;9.70;3.60;;;;;;;;;;5051217;28;20118;-82
2021/11/09 14:50:06;;;;;;;11.93;3.22;;;;;;;;;;5043520;28;20099;-82
2021/11/09 14:52:36;;;;;;;11.73;3.00;;;;;;;;;;5050882;28;20128;-82
2021/11/09 14:55:25;;;;;;;15.07;3.10;;;;;;;;;;5033200;28;20140;-81
2021/11/09 14:57:52;;;;;;;19.38;5.07;;;;;;;;;;5050932;28;20144;-82
2021/11/09 15:00:20;;;;;;;9.75;3.13;;;;;;;;;;5050692;28;20060;-82
2021/11/09 15:02:58;;;;;;;6.45;2.90;;;;;;;;;;5049970;28;20147;-82
2021/11/09 15:05:26;;;;;;;14.30;3.47;;;;;;;;;;5070827;28;20132;-82
2021/11/09 15:31:47;;;;;;;10.40;2.65;;;;;;;;;;5050865;28;20045;-81
2021/11/09 15:34:48;;;;;;;11.63;2.33;;;;;;;;;;5063168;28;20077;-81
2021/11/09 15:40:01;;;;;;;;;;;;;;;;;;5051088;28;20076;-81
2021/11/09 15:42:29;;;;;;;12.32;3.30;;;;;;;;;;5050676;28;20656;-81
2021/11/09 15:44:56;;;;;;;12.35;3.35;;;;;;;;;;5069568;28;20087;-81
2021/11/09 15:47:24;;;;;;;18.85;2.75;;;;;;;;;;5051849;28;20136;-81
2021/11/09 15:49:51;;;;;;;15.23;3.75;;;;;;;;;;5049754;28;20548;-82
2021/11/09 15:52:19;;;;;;;14.43;3.67;;;;;;;;;;5049672;28;20049;-82
2021/11/09 15:54:50;;;;;;;6.88;2.40;;;;;;;;;;5067842;28;20084;-81
2021/11/09 15:57:18;;;;;;;7.20;2.47;;;;;;;;;;5070099;28;20041;-81
2021/11/09 15:59:45;;;;;;;12.30;3.58;;;;;;;;;;5049724;28;20072;-81
2021/11/09 16:02:12;;;;;;;13.45;3.30;;;;;;;;;;5062692;28;20072;-82
2021/11/09 16:04:42;;;;;;;7.32;2.00;;;;;;;;;;5048385;28;20056;-82
2021/11/09 16:07:10;;;;;;;17.65;3.33;;;;;;;;;;5071083;28;20056;-81
2021/11/09 16:09:40;;;;;;;8.52;2.63;;;;;;;;;;5070422;28;20545;-81
2021/11/09 16:12:07;;;;;;;7.88;3.40;;;;;;;;;;5070957;28;20163;-81
2021/11/09 16:14:35;;;;;;;16.60;2.78;;;;;;;;;;5071046;28;20094;-81
2021/11/09 16:17:03;;;;;;;16.63;2.58;;;;;;;;;;5070704;28;20127;-81
2021/11/09 16:19:30;;;;;;;14.80;3.45;;;;;;;;;;5070551;28;20430;-81
2021/11/09 16:21:58;;;;;;;13.90;3.55;;;;;;;;;;5067411;28;20051;-82
2021/11/09 16:24:25;;;;;;;11.48;2.55;;;;;;;;;;5053397;28;20073;-81
2021/11/09 16:26:59;;;;;;;14.65;3.17;;;;;;;;;;5050562;28;20057;-81
2021/11/09 16:29:45;;;;;;;9.38;2.92;;;;;;;;;;5050830;28;20135;-81
2021/11/09 16:32:12;;;;;;;;;;;;;;;;;;5050251;28;20073;-82
2021/11/09 16:34:43;;;;;;;14.50;3.90;;;;;;;;;;5052337;28;20003;-82
2021/11/09 16:37:10;;;;;;;20.65;2.78;;;;;;;;;;5070626;28;20072;-81
2021/11/09 16:39:41;;;;;;;15.90;2.92;;;;;;;;;;5070353;28;20085;-82
2021/11/09 16:42:09;;;;;;;8.23;2.55;;;;;;;;;;5070278;28;20412;-82
2021/11/09 16:44:36;;;;;;;10.80;2.83;;;;;;;;;;5052386;28;20741;-81
2021/11/09 16:47:03;;;;;;;14.10;2.60;;;;;;;;;;5050747;28;20081;-82
2021/11/09 16:52:19;;;;;;;;;;;;;;;;;;5063503;28;20076;-82
2021/11/09 18:20:13;;;;;;;10.57;4.10;;;;;;;;;;5063789;28;20535;-81
2021/11/09 18:22:44;;;;;;;7.85;3.67;;;;;;;;;;5068826;28;20519;-82
2021/11/09 18:25:12;;;;;;;22.80;4.30;;;;;;;;;;5052589;28;20059;-82
2021/11/09 18:27:40;;;;;;;15.23;4.55;;;;;;;;;;5055346;28;20048;-81
2021/11/09 18:30:09;;;;;;;16.95;3.97;;;;;;;;;;5071692;28;20135;-82
2021/11/09 18:32:37;;;;;;;14.38;3.88;;;;;;;;;;5051023;28;20041;-82
2021/11/09 18:35:05;;;;;;;16.55;4.13;;;;;;;;;;5054620;28;20128;-82
2021/11/09 18:37:32;;;;;;;14.20;3.70;;;;;;;;;;5072347;28;20083;-82
2021/11/09 18:40:00;;;;;;;8.75;3.28;;;;;;;;;;5072591;28;20522;-83
2021/11/09 18:42:28;;;;;;;19.45;3.85;;;;;;;;;;5072659;28;20127;-82
2021/11/09 18:44:56;;;;;;;13.98;3.85;;;;;;;;;;5071904;28;20580;-82
2021/11/09 18:47:23;;;;;;;33.17;4.57;;;;;;;;;;5071093;28;20497;-82
2021/11/09 18:49:50;;;;;;;9.40;3.80;;;;;;;;;;5071814;28;20068;-82
2021/11/09 18:52:17;;;;;;;15.85;4.95;;;;;;;;;;5072066;28;20140;-82